createdAt,value
2023-06-20T00:00:26.934Z,19.06
2023-06-20T00:05:28.692Z,18.95
2023-06-20T00:10:30.436Z,18.99
2023-06-20T00:15:32.621Z,18.99
2023-06-20T00:20:34.321Z,19.17
2023-06-20T00:25:35.960Z,19.17
2023-06-20T00:30:37.678Z,18.97
2023-06-20T00:35:39.480Z,18.74
2023-06-20T00:40:41.134Z,18.73
2023-06-20T00:45:43.050Z,18.68
2023-06-20T00:50:45.104Z,18.45
2023-06-20T00:55:47.837Z,18.54
2023-06-20T01:00:49.541Z,18.52
2023-06-20T01:06:05.643Z,18.56
2023-06-20T01:11:39.709Z,18.45
2023-06-20T01:16:52.101Z,18.40
2023-06-20T01:22:01.324Z,18.19
2023-06-20T01:27:09.912Z,18.12
2023-06-20T01:32:16.794Z,18.06
2023-06-20T01:37:23.421Z,18.12
2023-06-20T01:42:27.725Z,18.23
2023-06-20T01:47:31.764Z,17.92
2023-06-20T01:52:36.465Z,17.81
2023-06-20T01:57:38.863Z,17.82
2023-06-20T02:02:41.574Z,17.75
2023-06-20T02:07:45.686Z,17.57
2023-06-20T02:12:50.480Z,17.72
2023-06-20T02:17:53.938Z,17.34
2023-06-20T02:22:57.017Z,17.50
2023-06-20T02:28:00.281Z,17.37
2023-06-20T02:33:06.427Z,17.35
2023-06-20T02:38:09.003Z,17.54
2023-06-20T02:43:10.720Z,17.34
2023-06-20T02:48:31.010Z,17.36
2023-06-20T02:53:47.223Z,17.20
2023-06-20T02:58:55.577Z,17.32
2023-06-20T03:04:02.688Z,17.45
2023-06-20T03:09:05.803Z,17.49
2023-06-20T03:14:13.767Z,17.47
2023-06-20T03:19:16.004Z,17.41
2023-06-20T03:24:18.687Z,17.46
2023-06-20T03:29:20.495Z,17.54
2023-06-20T03:34:22.286Z,17.81
2023-06-20T03:39:23.968Z,18.16
2023-06-20T03:44:26.326Z,18.32
2023-06-20T03:49:28.083Z,19.61
2023-06-20T03:54:30.263Z,20.38
2023-06-20T03:59:33.916Z,20.60
2023-06-20T04:04:35.705Z,21.70
2023-06-20T04:09:37.443Z,22.68
2023-06-20T04:14:39.272Z,23.23
2023-06-20T04:19:40.966Z,21.99
2023-06-20T04:24:42.750Z,20.63
2023-06-20T04:29:44.479Z,20.53
2023-06-20T04:34:47.879Z,20.48
2023-06-20T04:39:50.208Z,21.08
2023-06-20T04:44:52.521Z,21.86
2023-06-20T04:49:54.196Z,21.59
2023-06-20T04:55:03.031Z,21.48
2023-06-20T05:00:08.892Z,23.09
2023-06-20T05:05:12.040Z,24.41
2023-06-20T05:10:14.530Z,24.28
2023-06-20T05:15:16.207Z,23.31
2023-06-20T05:20:17.935Z,22.15
2023-06-20T05:25:19.771Z,21.97
2023-06-20T05:30:21.421Z,22.30
2023-06-20T05:35:23.245Z,22.44
2023-06-20T05:40:25.202Z,22.56
2023-06-20T05:45:27.093Z,22.62
2023-06-20T05:50:29.105Z,22.43
2023-06-20T05:55:30.952Z,22.69
2023-06-20T06:00:34.210Z,22.88
2023-06-20T06:05:35.912Z,22.58
2023-06-20T06:10:38.253Z,22.77
2023-06-20T06:15:43.065Z,22.95
2023-06-20T06:20:52.553Z,23.41
2023-06-20T06:25:54.394Z,23.18
2023-06-20T06:31:00.436Z,23.42
2023-06-20T06:36:02.556Z,23.91
2023-06-20T06:41:04.655Z,24.37
2023-06-20T06:46:06.482Z,24.68
2023-06-20T06:51:08.588Z,24.98
2023-06-20T06:56:10.229Z,25.18
2023-06-20T07:01:11.960Z,25.21
2023-06-20T07:06:13.618Z,25.13
2023-06-20T07:11:15.285Z,25.19
2023-06-20T07:16:17.113Z,25.52
2023-06-20T07:21:18.835Z,25.55
2023-06-20T07:26:20.486Z,26.22
2023-06-20T07:31:22.418Z,25.95
2023-06-20T07:36:24.340Z,26.03
2023-06-20T07:41:25.996Z,26.03
2023-06-20T07:46:27.741Z,26.16
2023-06-20T07:51:31.618Z,27.33
2023-06-20T07:56:33.390Z,28.16
2023-06-20T08:01:35.183Z,28.03
2023-06-20T08:06:37.251Z,28.69
2023-06-20T08:11:39.353Z,28.61
2023-06-20T08:16:41.156Z,27.39
2023-06-20T08:21:43.042Z,27.33
2023-06-20T08:26:44.827Z,26.86
2023-06-20T08:31:47.829Z,27.14
2023-06-20T08:36:51.402Z,26.79
2023-06-20T08:41:53.369Z,26.86
2023-06-20T08:46:58.619Z,26.56
2023-06-20T08:52:10.038Z,26.97
2023-06-20T08:57:12.505Z,26.58
2023-06-20T09:02:14.487Z,26.22
2023-06-20T09:07:20.151Z,26.13
2023-06-20T09:12:22.051Z,26.16
2023-06-20T09:17:23.797Z,27.56
2023-06-20T09:22:26.584Z,28.79
2023-06-20T09:27:34.467Z,27.28
2023-06-20T09:32:38.659Z,27.55
2023-06-20T09:37:40.320Z,26.55
2023-06-20T09:42:43.589Z,26.91
2023-06-20T09:47:46.146Z,26.21
2023-06-20T09:52:56.307Z,26.22
2023-06-20T09:58:01.105Z,26.16
2023-06-20T10:03:07.920Z,25.77
2023-06-20T10:08:09.992Z,25.54
2023-06-20T10:13:13.223Z,25.16
2023-06-20T10:18:36.425Z,26.11
2023-06-20T10:23:39.720Z,26.91
2023-06-20T10:28:42.647Z,27.28
2023-06-20T10:33:46.712Z,26.89
2023-06-20T10:38:54.416Z,27.00
2023-06-20T10:44:03.225Z,27.09
2023-06-20T10:49:05.678Z,27.26
2023-06-20T10:54:11.341Z,27.08
2023-06-20T10:59:15.096Z,28.27
2023-06-20T11:04:18.282Z,27.54
2023-06-20T11:09:26.939Z,26.92
2023-06-20T11:14:28.630Z,27.36
2023-06-20T11:19:37.340Z,26.55
2023-06-20T11:24:39.643Z,25.77
2023-06-20T11:29:41.441Z,26.32
2023-06-20T11:34:57.673Z,27.38
2023-06-20T11:40:00.133Z,27.70
2023-06-20T11:45:12.156Z,27.75
2023-06-20T11:50:24.623Z,27.94
2023-06-20T11:55:45.765Z,28.29
2023-06-20T12:00:58.588Z,28.33
2023-06-20T12:06:00.298Z,28.33
2023-06-20T12:11:04.007Z,28.17
2023-06-20T12:16:06.300Z,28.59
2023-06-20T12:21:08.228Z,29.20
2023-06-20T12:26:10.374Z,30.06
2023-06-20T12:31:13.300Z,29.57
2023-06-20T12:36:16.766Z,31.30
2023-06-20T12:41:18.837Z,32.84
2023-06-20T12:46:20.516Z,32.04
2023-06-20T12:51:22.586Z,33.02
2023-06-20T12:56:24.497Z,33.50
2023-06-20T13:01:26.309Z,32.06
2023-06-20T13:06:28.098Z,31.40
2023-06-20T13:11:29.823Z,32.04
2023-06-20T13:16:33.422Z,31.93
2023-06-20T13:21:35.759Z,31.63
2023-06-20T13:26:37.438Z,30.46
2023-06-20T13:31:39.146Z,29.39
2023-06-20T13:36:40.900Z,29.65
2023-06-20T13:41:42.607Z,29.81
2023-06-20T13:46:44.508Z,29.08
2023-06-20T13:51:46.539Z,29.04
2023-06-20T13:56:48.272Z,29.19
2023-06-20T14:01:50.032Z,28.81
2023-06-20T14:06:52.357Z,29.00
2023-06-20T14:11:54.030Z,29.21
2023-06-20T14:16:56.516Z,28.88
2023-06-20T14:21:58.199Z,29.29
2023-06-20T14:27:00.017Z,29.62
2023-06-20T14:32:01.695Z,30.18
2023-06-20T14:37:03.595Z,29.93
2023-06-20T14:42:05.571Z,30.19
2023-06-20T14:47:07.751Z,31.08
2023-06-20T14:52:09.547Z,30.49
2023-06-20T14:57:11.491Z,29.58
2023-06-20T15:02:13.204Z,29.33
2023-06-20T15:07:15.105Z,29.84
2023-06-20T15:12:16.784Z,29.44
2023-06-20T15:17:18.616Z,29.37
2023-06-20T15:22:20.280Z,29.39
2023-06-20T15:27:21.929Z,29.46
2023-06-20T15:32:23.645Z,29.18
2023-06-20T15:37:25.368Z,29.33
2023-06-20T15:42:27.193Z,29.83
2023-06-20T15:47:29.331Z,29.48
2023-06-20T15:52:31.273Z,29.88
2023-06-20T15:57:32.951Z,29.76
2023-06-20T16:02:34.761Z,29.48
2023-06-20T16:07:36.494Z,29.45
2023-06-20T16:12:39.134Z,29.52
2023-06-20T16:17:40.938Z,29.95
2023-06-20T16:22:42.962Z,29.67
2023-06-20T16:27:45.149Z,29.40
2023-06-20T16:32:47.059Z,29.28
2023-06-20T16:37:49.173Z,29.10
2023-06-20T16:42:50.918Z,29.27
2023-06-20T16:47:53.101Z,29.10
2023-06-20T16:52:54.875Z,28.91
2023-06-20T16:57:56.540Z,28.54
2023-06-20T17:02:58.308Z,28.51
2023-06-20T17:07:59.991Z,27.81
2023-06-20T17:13:01.668Z,27.86
2023-06-20T17:18:03.631Z,28.00
2023-06-20T17:23:05.365Z,28.27
2023-06-20T17:28:07.073Z,28.44
2023-06-20T17:33:08.827Z,28.40
2023-06-20T17:38:10.496Z,28.44
2023-06-20T17:43:12.187Z,28.39
2023-06-20T17:48:13.910Z,28.32
2023-06-20T17:53:15.703Z,28.44
2023-06-20T17:58:17.348Z,28.00
2023-06-20T18:03:19.531Z,27.92
2023-06-20T18:08:22.432Z,27.62
2023-06-20T18:13:24.245Z,27.52
2023-06-20T18:18:25.882Z,27.11
2023-06-20T18:23:27.562Z,26.99
2023-06-20T18:28:29.191Z,26.72
2023-06-20T18:33:30.885Z,26.57
2023-06-20T18:38:33.331Z,26.44
2023-06-20T18:43:35.033Z,26.33
2023-06-20T18:48:36.719Z,26.08
2023-06-20T18:53:39.236Z,25.87
2023-06-20T18:58:40.881Z,25.70
2023-06-20T19:03:42.776Z,25.49
2023-06-20T19:08:44.511Z,25.18
2023-06-20T19:13:46.364Z,24.84
2023-06-20T19:18:48.080Z,24.78
2023-06-20T19:23:52.329Z,24.56
2023-06-20T19:28:54.089Z,24.29
2023-06-20T19:33:55.871Z,24.17
2023-06-20T19:38:57.501Z,24.01
2023-06-20T19:43:59.216Z,23.84
2023-06-20T19:49:02.424Z,23.83
2023-06-20T19:54:04.320Z,23.65
2023-06-20T19:59:06.009Z,23.40
2023-06-20T20:04:07.880Z,23.47
2023-06-20T20:09:09.793Z,23.26
2023-06-20T20:14:11.456Z,23.24
2023-06-20T20:19:13.273Z,22.92
2023-06-20T20:24:15.929Z,22.70
2023-06-20T20:29:18.414Z,22.61
2023-06-20T20:34:20.060Z,22.61
2023-06-20T20:39:21.732Z,22.47
2023-06-20T20:44:24.825Z,22.16
2023-06-20T20:49:26.518Z,22.20
2023-06-20T20:54:28.174Z,22.09
2023-06-20T20:59:29.825Z,21.93
2023-06-20T21:04:31.544Z,21.73
2023-06-20T21:09:33.189Z,21.63
2023-06-20T21:14:34.934Z,21.63
2023-06-20T21:19:36.580Z,21.60
2023-06-20T21:24:38.431Z,21.57
2023-06-20T21:29:40.136Z,21.41
2023-06-20T21:34:41.788Z,21.38
2023-06-20T21:39:43.882Z,21.37
2023-06-20T21:44:45.558Z,21.26
2023-06-20T21:49:47.455Z,21.28
2023-06-20T21:54:49.116Z,21.18
2023-06-20T21:59:50.913Z,20.94
2023-06-20T22:04:52.566Z,20.86
2023-06-20T22:10:03.137Z,21.02
2023-06-20T22:15:07.003Z,20.93
2023-06-20T22:20:12.316Z,20.99
2023-06-20T22:25:14.114Z,21.01
2023-06-20T22:30:15.799Z,20.87
2023-06-20T22:35:17.569Z,20.85
2023-06-20T22:40:19.212Z,20.73
2023-06-20T22:45:20.941Z,20.52
2023-06-20T22:50:23.565Z,20.55
2023-06-20T22:55:25.328Z,20.55
2023-06-20T23:00:27.173Z,20.74
2023-06-20T23:05:29.190Z,20.64
2023-06-20T23:10:31.268Z,20.52
2023-06-20T23:15:33.070Z,20.57
2023-06-20T23:20:38.328Z,20.78
2023-06-20T23:25:41.620Z,20.79
2023-06-20T23:30:43.517Z,20.66
2023-06-20T23:35:46.001Z,20.89
2023-06-20T23:40:47.925Z,20.72
2023-06-20T23:45:49.761Z,20.75
2023-06-20T23:50:52.309Z,20.90
2023-06-20T23:55:54.957Z,20.95
